Latest Coastal Weather Observations for Carnarvon

IDW60701

Issued at 5:33 pm WST Saturday 25 March 2017 (issued every 10 minutes, with the page automatically refreshed every 10 minutes)

About coastal observations | Map of coastal stations | Coastal observations for WA | Marine services | Other Formats
Station Details ID: 006011 Name: CARNARVON AIRPORT Lat: -24.89 Lon: 113.67 Height: 4.0 m
Data from the previous 72 hours. | See also: Recent months at Carnarvon
Date/Time
WST
Temp
°C
Wind Pressure Rain since
9am
mm
Weather Cloud Vis
km
Sea
Height
m
Swell
Dir  Spd
kts
Gust
kts
hPa Trend Height
m
Period
s
Dir
25/05:30pm 26.1 SSW 18 24 1007.9 - 0.0 - - 10 - - - -
25/05:00pm 26.5 SSW 18 23 1007.7 - 0.0 - - 10 - - - -
25/04:30pm 27.1 SSW 17 22 1007.6 - 0.0 - - 10 - - - -
25/04:00pm 27.6 SSW 17 21 1007.4 - 0.0 - - 10 - - - -
25/03:30pm 27.8 SSW 17 21 1007.4 - 0.0 - - 10 - - - -
25/03:00pm 27.3 SSW 15 20 1007.3 - 0.0 - - 10 - - - -
25/02:30pm 27.8 SSW 16 21 1007.5 - 0.0 - - 10 - - - -
25/02:00pm 27.9 SSW 15 19 1007.6 - 0.0 - - 10 - - - -
25/01:30pm 27.2 SSW 15 18 1007.9 - 0.0 - - 10 - - - -
25/01:00pm 27.3 SSW 15 18 1008.1 - 0.0 - - 10 - - - -
25/12:30pm 27.2 SSW 15 17 1008.3 - 0.0 - - 10 - - - -
25/12:00pm 27.0 SSW 13 17 1008.7 - 0.0 - - 10 - - - -
25/11:30am 26.9 SSW 14 18 1009.1 - 0.0 - - 10 - - - -
25/11:00am 26.3 SSW 15 18 1009.5 - 0.0 - - 10 - - - -
25/10:30am 25.2 SSW 14 17 1009.9 - 0.0 - - 10 - - - -
25/10:00am 25.9 S 12 15 1010.1 - 0.0 - - 10 - - - -
25/09:30am 25.8 S 10 13 1010.2 - 0.0 - - 10 - - - -
25/09:00am 25.4 SSE 11 14 1010.2 - 0.0 - - 10 - - - -
25/08:30am 24.3 S 11 15 1010.0 - 0.0 - - 10 - - - -
25/08:00am 23.9 SSE 8 9 1009.7 - 0.0 - - 10 - - - -
25/07:30am 22.7 SSE 8 10 1009.3 - 0.0 - - 10 - - - -
25/07:00am 22.0 S 9 11 1009.2 - 0.0 - - 10 - - - -
25/06:30am 21.6 S 9 11 1009.0 - 0.0 - - 10 - - - -
25/06:00am 21.4 S 8 10 1008.9 - 0.0 - - 10 - - - -
25/05:30am 21.4 S 7 8 1008.6 - 0.0 - - 10 - - - -
25/05:00am 21.6 S 7 9 1008.5 - 0.0 - - 10 - - - -
25/04:30am 21.8 S 7 9 1008.3 - 0.0 - - 10 - - - -
25/04:00am 21.8 S 9 11 1008.2 - 0.0 - - 10 - - - -
25/03:30am 21.9 SSE 8 11 1008.2 - 0.0 - - 10 - - - -
25/03:00am 22.0 S 10 12 1008.3 - 0.0 - - 10 - - - -
25/02:30am 22.2 S 10 13 1008.3 - 0.0 - - 10 - - - -
25/02:00am 22.4 S 10 14 1008.4 - 0.0 - - 10 - - - -
25/01:30am 22.7 S 11 15 1008.6 - 0.0 - - 10 - - - -
25/01:00am 22.9 S 12 17 1008.7 - 0.0 - - 10 - - - -
25/12:30am 22.9 S 13 18 1008.9 - 0.0 - - 10 - - - -
25/12:00am 23.0 S 14 19 1008.9 - 0.0 - - 10 - - - -
 
Date/Time
WST
Temp
°C
Wind Pressure Rain since
9am
mm
Weather Cloud Vis
km
Sea
Height
m
Swell
Dir  Spd
kts
Gust
kts
hPa Trend Height
m
Period
s
Dir
24/11:30pm 23.1 S 13 17 1009.1 - 0.0 - - 10 - - - -
24/11:00pm 23.1 S 13 17 1009.3 - 0.0 - - 10 - - - -
24/10:30pm 23.2 S 12 16 1009.6 - 0.0 - - 10 - - - -
24/10:00pm 23.5 S 15 20 1009.3 - 0.0 - - 10 - - - -
24/09:30pm 23.6 S 16 21 1008.9 - 0.0 - - 10 - - - -
24/09:00pm 23.7 S 17 23 1008.7 - 0.0 - - 10 - - - -
24/08:30pm 23.9 S 18 25 1008.6 - 0.0 - - 10 - - - -
24/08:00pm 24.3 S 20 26 1008.3 - 0.0 - - 10 - - - -
24/07:30pm 24.2 S 16 21 1008.1 - 0.0 - - 10 - - - -
24/07:00pm 24.3 S 19 25 1007.8 - 0.0 - - 10 - - - -
24/06:30pm 24.5 SSW 19 28 1007.4 - 0.0 - - 10 - - - -
24/06:00pm 24.9 SSW 21 28 1007.1 - 0.0 - - 10 - - - -
24/05:30pm 25.4 SSW 21 30 1006.9 - 0.0 - - 10 - - - -
24/05:00pm 25.7 SSW 22 29 1006.6 - 0.0 - - 10 - - - -
24/04:30pm 26.3 SSW 20 27 1006.7 - 0.0 - - 10 - - - -
24/04:00pm 26.8 SSW 18 25 1006.7 - 0.0 - - 10 - - - -
24/03:30pm 27.3 SSW 17 21 1007.0 - 0.0 - - 10 - - - -
24/03:00pm 27.3 SSW 16 20 1007.2 - 0.0 Fine Mostly clear 29 - - - -
24/02:30pm 27.2 S 17 22 1007.4 - 0.0 - - 10 - - - -
24/02:00pm 26.5 S 18 22 1007.6 - 0.0 - - 10 - - - -
24/01:30pm 26.0 S 19 24 1008.0 - 0.0 - - 10 - - - -
24/01:00pm 25.8 S 20 24 1008.3 - 0.0 - - 10 - - - -
24/12:30pm 25.7 S 20 24 1008.5 - 0.0 - - 10 - - - -
24/12:00pm 25.5 S 19 23 1008.9 - 0.0 - - 10 - - - -
24/11:30am 25.7 S 19 24 1009.2 - 0.0 - - 10 - - - -
24/11:00am 26.0 S 19 24 1009.7 - 0.0 - - 10 - - - -
24/10:30am 25.9 S 18 24 1010.0 - 0.0 - - 10 - - - -
24/10:00am 24.5 S 19 23 1010.1 - 0.0 - - 10 - - - -
24/09:30am 24.1 S 20 26 1010.0 - 0.0 - - 10 - - - -
24/09:00am 24.3 S 20 27 1010.1 - 0.0 Fine Mostly clear 20 - - - -
24/08:30am 23.1 S 21 28 1010.0 - 0.0 - - 10 - - - -
24/08:00am 22.7 S 19 25 1009.8 - 0.0 - - 10 - - - -
24/07:30am 21.6 S 16 21 1009.6 - 0.0 - - 10 - - - -
24/07:00am 20.9 S 16 21 1009.5 - 0.0 - - 10 - - - -
24/06:30am 20.7 S 15 20 1009.3 - 0.0 - - 10 - - - -
24/06:00am 20.8 S 17 22 1009.1 - 0.0 - - 10 - - - -
24/05:30am 21.0 S 14 18 1008.9 - 0.0 - - 10 - - - -
24/05:00am 21.1 S 15 19 1008.7 - 0.0 - - 10 - - - -
24/04:30am 21.4 S 17 24 1008.6 - 0.0 - - 10 - - - -
24/04:00am 21.5 SSE 17 23 1008.4 - 0.0 - - 10 - - - -
24/03:30am 21.6 S 17 23 1008.4 - 0.0 - - 10 - - - -
24/03:00am 21.8 SSE 18 23 1008.5 - 0.0 - - 10 - - - -
24/02:30am 21.9 SSE 18 24 1008.5 - 0.0 - - 10 - - - -
24/02:00am 22.0 SSE 18 24 1008.5 - 0.0 - - 10 - - - -
24/01:30am 22.1 S 17 23 1008.5 - 0.0 - Partly cloudy 10 - - - -
24/01:00am 22.2 S 17 21 1008.7 - 0.0 - Partly cloudy 10 - - - -
24/12:30am 22.2 S 18 25 1008.7 - 0.0 - - 10 - - - -
24/12:00am 22.5 S 21 28 1008.5 - 0.0 - - 10 - - - -
 
Date/Time
WST
Temp
°C
Wind Pressure Rain since
9am
mm
Weather Cloud Vis
km
Sea
Height
m
Swell
Dir  Spd
kts
Gust
kts
hPa Trend Height
m
Period
s
Dir
23/11:30pm 22.7 S 19 26 1008.8 - 0.0 - - 10 - - - -
23/11:00pm 23.0 S 19 28 1008.9 - 0.0 - - 10 - - - -
23/10:56pm 22.9 S 19 29 1009.1 - 0.0 - - 10 - - - -
23/10:30pm 23.2 S 21 26 1009.1 - 0.0 - - 10 - - - -
23/10:00pm 23.2 S 21 25 1009.0 - 0.0 - - 10 - - - -
23/09:30pm 23.3 S 21 28 1009.1 - 0.0 - - 10 - - - -
23/09:00pm 23.4 S 21 28 1009.0 - 0.0 - - 10 - - - -
23/08:30pm 23.5 S 23 33 1008.6 - 0.0 - - 10 - - - -
23/08:29pm 23.5 S 23 33 1008.5 - 0.0 - - 10 - - - -
23/08:00pm 24.0 S 24 29 1008.2 - 0.0 - - 10 - - - -
23/07:30pm 24.5 S 21 27 1007.7 - 0.0 - - 10 - - - -
23/07:00pm 24.8 S 20 26 1007.4 - 0.0 - - 10 - - - -
23/06:30pm 25.3 S 21 27 1007.1 - 0.0 - - 10 - - - -
23/06:00pm 25.5 SSW 16 22 1007.1 - 0.0 - - 10 - - - -
23/05:30pm 25.8 SSW 16 21 1007.0 - 0.0 - - 10 - - - -
23/05:00pm 27.9 S 18 24 1007.0 - 0.0 - - 10 - - - -
23/04:30pm 27.9 S 18 24 1007.0 - 0.0 - - 10 - - - -
23/04:00pm 28.0 S 21 27 1007.0 - 0.0 - - 10 - - - -
23/03:30pm 28.3 S 21 27 1007.0 - 0.0 - - 10 - - - -
23/03:00pm 28.7 S 21 28 1007.1 - 0.0 Fine Mostly clear 24 - - - -
23/02:30pm 27.1 S 23 29 1007.4 - 0.0 - - 10 - - - -
23/02:00pm 28.0 S 22 29 1007.6 - 0.0 - - 10 - - - -
23/01:30pm 26.0 S 22 28 1007.9 - 0.0 - - 10 - - - -
23/01:00pm 27.2 S 23 30 1008.2 - 0.0 - - 10 - - - -
23/12:30pm 26.8 S 22 30 1008.6 - 0.0 - - 10 - - - -
23/12:00pm 26.7 S 22 27 1008.9 - 0.0 - - 10 - - - -
23/11:30am 27.2 S 21 27 1009.2 - 0.0 - - 10 - - - -
23/11:00am 27.0 S 20 27 1009.6 - 0.0 - - 10 - - - -
23/10:30am 26.1 SSE 21 27 1010.0 - 0.0 - - 10 - - - -
23/10:00am 25.2 SSE 21 29 1010.4 - 0.0 - - 10 - - - -
23/09:30am 24.3 SSE 21 27 1010.7 - 0.0 - - 10 - - - -
23/09:00am 23.2 SSE 21 28 1010.9 - 0.0 Fine Mostly clear 16 - - - -
23/08:30am 22.5 SSE 21 27 1011.0 - 0.0 - - 10 - - - -
23/08:00am 21.8 SSE 22 30 1010.8 - 0.0 - - 10 - - - -
23/07:30am 21.0 SSE 20 28 1010.6 - 0.0 - - 10 - - - -
23/07:00am 20.2 SSE 19 25 1010.6 - 0.0 - - 10 - - - -
23/06:30am 20.0 SSE 17 23 1010.2 - 0.0 - - 10 - - - -
23/06:00am 20.1 SSE 17 23 1010.0 - 0.0 - - 10 - - - -
23/05:30am 20.3 SSE 17 23 1009.9 - 0.0 - - 10 - - - -
23/05:00am 20.4 SSE 16 21 1009.8 - 0.0 - - 10 - - - -
23/04:30am 20.4 SSE 15 19 1009.6 - 0.0 - - 10 - - - -
23/04:00am 20.7 SSE 16 21 1009.7 - 0.0 - - 10 - - - -
23/03:30am 21.1 SSE 17 22 1009.6 - 0.0 - - 10 - - - -
23/03:00am 21.2 SSE 16 22 1009.7 - 0.0 - - 10 - - - -
23/02:30am 21.3 SSE 15 22 1009.5 - 0.0 - - 10 - - - -
23/02:00am 21.3 S 16 22 1009.7 - 0.0 - - 10 - - - -
23/01:30am 21.4 SSE 17 23 1009.8 - 0.0 - - 10 - - - -
23/01:00am 21.6 SSE 16 20 1009.9 - 0.0 - - 10 - - - -
23/12:30am 21.9 SSE 16 20 1010.2 - 0.0 - - 10 - - - -
23/12:00am 22.1 S 18 24 1010.3 - 0.0 - - 10 - - - -
 
Date/Time
WST
Temp
°C
Wind Pressure Rain since
9am
mm
Weather Cloud Vis
km
Sea
Height
m
Swell
Dir  Spd
kts
Gust
kts
hPa Trend Height
m
Period
s
Dir
22/11:30pm 22.2 S 20 27 1010.5 - 0.0 - - 10 - - - -
22/11:00pm 22.2 S 18 23 1010.7 - 0.0 - - 10 - - - -
22/10:30pm 22.4 S 20 26 1010.7 - 0.0 - - 10 - - - -
22/10:00pm 22.6 S 19 26 1010.7 - 0.0 - - 10 - - - -
22/09:30pm 22.7 S 20 26 1010.6 - 0.0 - - 10 - - - -
22/09:00pm 23.1 S 19 26 1010.5 - 0.0 - - 10 - - - -
22/08:30pm 23.3 S 20 25 1010.3 - 0.0 - - 10 - - - -
22/08:00pm 23.7 S 21 27 1010.0 - 0.0 - - 10 - - - -
22/07:30pm 24.0 S 19 27 1009.5 - 0.0 - - 10 - - - -
22/07:05pm 23.9 S 19 29 1009.1 - 0.0 - - 10 - - - -
22/07:00pm 24.0 S 21 29 1009.1 - 0.0 - - 10 - - - -
22/06:30pm 24.2 S 18 23 1008.9 - 0.0 - - 10 - - - -
22/06:00pm 24.8 S 20 24 1008.7 - 0.0 - - 10 - - - -

Other Formats:

Comma delimited format used in spreadsheet applications
http://www.bom.gov.au/fwo/IDW60701/IDW60701.94300.axf

JavaScript Object Notation format (JSON) in row-major order
http://www.bom.gov.au/fwo/IDW60701/IDW60701.94300.json